Time;durP1;ratioP1;P1;durP2;ratioP2;P2;SDS_P1;SDS_P2;PMS_P1;PMS_P2;Temp;Humidity;BMP_temperature;BMP_pressure;BME280_temperature;BME280_humidity;BME280_pressure;Samples;Min_cycle;Max_cycle;Signal;HPM_P1;HPM_P2
2021/08/25 00:01:58;;;;;;;7.07;4.20;;;12.90;99.90;;;;;;5034434;28;20030;-61
2021/08/25 00:04:23;;;;;;;12.38;4.95;;;12.90;99.90;;;;;;5037148;28;20036;-62
2021/08/25 00:06:49;;;;;;;11.13;5.32;;;12.90;99.90;;;;;;5042287;28;20049;-62
2021/08/25 00:09:14;;;;;;;13.02;5.53;;;12.90;99.90;;;;;;5041965;28;20033;-60
2021/08/25 00:11:40;;;;;;;8.88;4.68;;;12.80;99.90;;;;;;5038480;28;20030;-62
2021/08/25 00:14:05;;;;;;;10.65;4.68;;;12.90;99.90;;;;;;5030381;28;20071;-62
2021/08/25 00:16:31;;;;;;;9.98;4.93;;;12.80;99.90;;;;;;5036102;28;20131;-62
2021/08/25 00:18:56;;;;;;;14.25;4.57;;;12.80;99.90;;;;;;5030385;28;20076;-62
2021/08/25 00:21:22;;;;;;;9.15;4.93;;;12.80;99.90;;;;;;5036135;28;20086;-62
2021/08/25 00:23:47;;;;;;;16.42;5.03;;;12.80;99.90;;;;;;5039305;28;20025;-60
2021/08/25 00:26:13;;;;;;;9.82;4.85;;;12.70;99.90;;;;;;5038828;28;20029;-62
2021/08/25 00:28:38;;;;;;;11.68;4.72;;;12.60;99.90;;;;;;5034310;28;20029;-62
2021/08/25 00:31:04;;;;;;;9.48;4.55;;;12.60;99.90;;;;;;5040536;28;20056;-62
2021/08/25 00:33:30;;;;;;;8.98;4.70;;;12.60;99.90;;;;;;5033521;28;20029;-62
2021/08/25 00:35:55;;;;;;;10.75;5.13;;;12.60;99.90;;;;;;5037404;28;20112;-62
2021/08/25 00:38:21;;;;;;;9.10;4.88;;;12.60;99.90;;;;;;5038536;28;20033;-61
2021/08/25 00:40:46;;;;;;;8.80;4.80;;;12.60;99.90;;;;;;5036635;28;20037;-62
2021/08/25 00:43:12;;;;;;;8.55;4.30;;;12.50;99.90;;;;;;5032253;28;20029;-62
2021/08/25 00:45:42;;;;;;;7.88;4.82;;;12.50;99.90;;;;;;5032420;28;20028;-62
2021/08/25 00:48:15;;;;;;;16.65;5.05;;;12.40;99.90;;;;;;5013513;28;20030;-61
2021/08/25 00:50:42;;;;;;;8.07;4.43;;;12.40;99.90;;;;;;5038002;28;20033;-62
2021/08/25 00:53:08;;;;;;;10.93;4.75;;;12.40;99.90;;;;;;5040104;28;20111;-62
2021/08/25 00:55:41;;;;;;;8.73;4.93;;;12.40;99.90;;;;;;5037443;28;20024;-61
2021/08/25 00:58:07;;;;;;;14.60;4.53;;;12.30;99.90;;;;;;5040810;28;20017;-62
2021/08/25 01:00:37;;;;;;;14.13;4.25;;;12.30;99.90;;;;;;5035401;28;20030;-63
2021/08/25 01:03:15;;;;;;;10.15;4.70;;;12.30;99.90;;;;;;5041694;28;20021;-62
2021/08/25 01:05:42;;;;;;;8.15;5.13;;;12.20;99.90;;;;;;5044109;28;20052;-62
2021/08/25 01:08:10;;;;;;;9.93;5.75;;;12.20;99.90;;;;;;5037191;28;20497;-62
2021/08/25 01:10:36;;;;;;;13.25;6.78;;;12.20;99.90;;;;;;5039371;28;20032;-62
2021/08/25 01:13:04;;;;;;;7.85;5.18;;;12.20;99.90;;;;;;5040755;28;20034;-62
2021/08/25 01:15:31;;;;;;;11.75;5.13;;;12.20;99.90;;;;;;5040315;28;20028;-62
2021/08/25 01:17:59;;;;;;;12.18;5.57;;;12.20;99.90;;;;;;5037683;28;20036;-62
2021/08/25 01:20:26;;;;;;;11.57;4.80;;;12.30;99.90;;;;;;5038752;28;20060;-62
2021/08/25 01:22:52;;;;;;;8.70;4.45;;;12.20;99.90;;;;;;5039574;28;20030;-61
2021/08/25 01:25:19;;;;;;;11.43;4.88;;;12.20;99.90;;;;;;5038879;28;20095;-62
2021/08/25 01:27:51;;;;;;;10.10;5.10;;;12.10;99.90;;;;;;5043998;28;20505;-62
2021/08/25 01:30:18;;;;;;;8.90;4.30;;;12.10;99.90;;;;;;5037556;28;20025;-62
2021/08/25 01:32:43;;;;;;;15.32;4.88;;;12.10;99.90;;;;;;5040565;28;20052;-60
2021/08/25 01:35:10;;;;;;;11.02;4.65;;;12.10;99.90;;;;;;5042880;28;20393;-62
2021/08/25 01:37:35;;;;;;;10.10;4.88;;;12.10;99.90;;;;;;5036086;28;20063;-62
2021/08/25 01:40:02;;;;;;;13.75;5.20;;;12.10;99.90;;;;;;5043509;28;20651;-62
2021/08/25 01:42:27;;;;;;;11.02;6.10;;;12.00;99.90;;;;;;5032870;28;20044;-62
2021/08/25 01:44:53;;;;;;;11.18;4.45;;;12.00;99.90;;;;;;5038464;28;20067;-63
2021/08/25 01:47:20;;;;;;;8.85;4.57;;;12.00;99.90;;;;;;5047401;28;20104;-62
2021/08/25 01:49:46;;;;;;;7.03;4.53;;;11.90;99.90;;;;;;5035649;28;20056;-62
2021/08/25 01:52:13;;;;;;;9.55;4.82;;;11.90;99.90;;;;;;5042675;28;20443;-62
2021/08/25 01:54:39;;;;;;;8.25;5.00;;;11.90;99.90;;;;;;5034639;28;20028;-62
2021/08/25 01:57:08;;;;;;;9.10;4.60;;;11.90;99.90;;;;;;5043085;28;20087;-62
2021/08/25 01:59:35;;;;;;;9.35;4.50;;;11.90;99.90;;;;;;5033879;28;20025;-63
2021/08/25 02:02:01;;;;;;;8.82;4.80;;;11.90;99.90;;;;;;5041275;28;20032;-62
2021/08/25 02:04:26;;;;;;;13.63;5.07;;;11.80;99.90;;;;;;5034103;28;20036;-62
2021/08/25 02:06:53;;;;;;;9.15;4.95;;;11.80;99.90;;;;;;5042544;28;20021;-62
2021/08/25 02:09:20;;;;;;;14.07;4.93;;;11.70;99.90;;;;;;5038343;28;20033;-62
2021/08/25 02:11:46;;;;;;;11.38;5.20;;;11.70;99.90;;;;;;5039908;28;20030;-62
2021/08/25 02:14:12;;;;;;;9.73;4.80;;;11.70;99.90;;;;;;5034269;28;20087;-62
2021/08/25 02:16:37;;;;;;;13.15;4.95;;;11.70;99.90;;;;;;5040535;28;20082;-62
2021/08/25 02:19:03;;;;;;;8.60;4.20;;;11.70;99.90;;;;;;5044396;28;20039;-62
2021/08/25 02:21:28;;;;;;;14.32;5.55;;;11.60;99.90;;;;;;5033319;28;20053;-63
2021/08/25 02:23:54;;;;;;;11.35;5.80;;;11.60;99.90;;;;;;5033945;28;20559;-61
2021/08/25 02:26:20;;;;;;;10.27;5.10;;;11.60;99.90;;;;;;5036471;28;20044;-62
2021/08/25 02:28:46;;;;;;;7.82;4.47;;;11.50;99.90;;;;;;5038460;28;20120;-62
2021/08/25 02:31:13;;;;;;;11.07;5.10;;;11.50;99.90;;;;;;5036226;28;20039;-62
2021/08/25 02:33:39;;;;;;;9.13;4.47;;;11.60;99.90;;;;;;5034280;28;20024;-63
2021/08/25 02:36:06;;;;;;;13.60;5.13;;;11.60;99.90;;;;;;5032695;28;20044;-61
2021/08/25 02:38:33;;;;;;;13.68;5.20;;;11.50;99.90;;;;;;5042151;28;20021;-62
2021/08/25 02:40:59;;;;;;;8.75;4.85;;;11.50;99.90;;;;;;5038690;28;20029;-63
2021/08/25 02:43:24;;;;;;;9.32;5.05;;;11.40;99.90;;;;;;5032156;28;20124;-62
2021/08/25 02:45:50;;;;;;;12.32;5.00;;;11.40;99.90;;;;;;5044168;28;20249;-62
2021/08/25 02:48:15;;;;;;;10.70;4.70;;;11.40;99.90;;;;;;5040205;28;20029;-63
2021/08/25 02:50:41;;;;;;;9.82;5.28;;;11.40;99.90;;;;;;5102369;22;20454;-62
2021/08/25 02:53:07;;;;;;;7.80;5.18;;;11.40;99.90;;;;;;5094630;28;20023;-61
2021/08/25 02:55:33;;;;;;;11.00;5.63;;;11.40;99.90;;;;;;5092223;28;20122;-62
2021/08/25 02:57:58;;;;;;;11.43;5.50;;;11.40;99.90;;;;;;5090683;28;20095;-62
2021/08/25 03:00:25;;;;;;;16.42;4.78;;;11.40;99.90;;;;;;5089185;28;20024;-62
2021/08/25 03:02:51;;;;;;;8.80;5.80;;;11.40;99.90;;;;;;5089580;28;20055;-62
2021/08/25 03:05:16;;;;;;;7.55;4.50;;;11.40;99.90;;;;;;5086814;28;20056;-61
2021/08/25 03:07:42;;;;;;;13.00;5.60;;;11.40;99.90;;;;;;5090810;28;20032;-62
2021/08/25 03:10:08;;;;;;;12.40;5.43;;;11.30;99.90;;;;;;5087212;28;20071;-62
2021/08/25 03:12:34;;;;;;;11.63;6.00;;;11.30;99.90;;;;;;5088729;28;20031;-62
2021/08/25 03:15:00;;;;;;;8.15;5.28;;;11.30;99.90;;;;;;5085011;28;20028;-61
2021/08/25 03:17:25;;;;;;;12.93;6.28;;;11.20;99.90;;;;;;5083276;28;20085;-65
2021/08/25 03:19:51;;;;;;;13.18;5.80;;;11.20;99.90;;;;;;5083925;28;20029;-62
2021/08/25 03:22:17;;;;;;;10.68;5.55;;;11.20;99.90;;;;;;5080864;28;20064;-61
2021/08/25 03:24:42;;;;;;;12.75;5.60;;;11.20;99.90;;;;;;5087892;28;20031;-62
2021/08/25 03:27:08;;;;;;;9.05;5.20;;;11.30;99.90;;;;;;5088134;28;20464;-62
2021/08/25 03:29:33;;;;;;;8.50;5.57;;;11.20;99.90;;;;;;5085873;28;20028;-62
2021/08/25 03:31:59;;;;;;;14.07;6.20;;;11.10;99.90;;;;;;5067722;28;20028;-62
2021/08/25 03:34:24;;;;;;;9.77;5.45;;;11.20;99.90;;;;;;5079961;28;20038;-62
2021/08/25 03:36:50;;;;;;;10.98;6.43;;;11.10;99.90;;;;;;5088206;28;20411;-62
2021/08/25 03:39:16;;;;;;;11.38;5.93;;;11.10;99.90;;;;;;5071730;28;20020;-60
2021/08/25 03:41:41;;;;;;;8.68;5.65;;;11.10;99.90;;;;;;5090169;28;20036;-62
2021/08/25 03:44:07;;;;;;;12.50;7.35;;;11.10;99.90;;;;;;5090905;28;20031;-62
2021/08/25 03:46:33;;;;;;;11.80;5.97;;;11.10;99.90;;;;;;5083280;28;20024;-62
2021/08/25 03:48:58;;;;;;;13.45;6.25;;;11.10;99.90;;;;;;5083370;28;20024;-61
2021/08/25 03:51:24;;;;;;;8.52;6.03;;;11.00;99.90;;;;;;5084390;28;20494;-62
2021/08/25 03:53:49;;;;;;;8.80;6.15;;;11.00;99.90;;;;;;5083666;28;20032;-61
2021/08/25 03:56:15;;;;;;;14.50;6.88;;;11.00;99.90;;;;;;5087008;28;20027;-62
2021/08/25 03:58:40;;;;;;;15.27;6.57;;;11.00;99.90;;;;;;5087332;28;20043;-62
2021/08/25 04:01:06;;;;;;;17.05;6.55;;;11.00;99.90;;;;;;5080924;28;20032;-61
2021/08/25 04:03:31;;;;;;;9.13;5.78;;;10.90;99.90;;;;;;5081331;28;20024;-61
2021/08/25 04:05:57;;;;;;;17.10;7.38;;;10.90;99.90;;;;;;5090196;28;20039;-61
2021/08/25 04:08:22;;;;;;;14.52;7.22;;;10.80;99.90;;;;;;5082057;28;20028;-61
2021/08/25 04:10:48;;;;;;;12.52;7.20;;;10.80;99.90;;;;;;5089079;28;20028;-62
2021/08/25 04:13:14;;;;;;;15.35;6.60;;;10.90;99.90;;;;;;5086616;28;20036;-62
2021/08/25 04:15:40;;;;;;;9.27;6.18;;;10.90;99.90;;;;;;5085346;28;20422;-59
2021/08/25 04:18:05;;;;;;;12.93;6.18;;;10.90;99.90;;;;;;5086637;28;20031;-63
2021/08/25 04:20:31;;;;;;;12.18;6.95;;;10.80;99.90;;;;;;5080683;28;20019;-60
2021/08/25 04:22:57;;;;;;;12.50;6.78;;;10.80;99.90;;;;;;5087485;28;20016;-60
2021/08/25 04:25:22;;;;;;;18.17;6.53;;;10.90;99.90;;;;;;5084664;28;20070;-62
2021/08/25 04:27:48;;;;;;;9.32;6.47;;;10.90;99.90;;;;;;5085015;28;20032;-62
2021/08/25 04:30:13;;;;;;;11.95;6.75;;;10.80;99.90;;;;;;5075704;28;20037;-61
2021/08/25 04:32:39;;;;;;;13.30;7.50;;;10.80;99.90;;;;;;5081499;28;20024;-61
2021/08/25 04:35:05;;;;;;;13.88;6.78;;;10.80;99.90;;;;;;5083685;28;20031;-61
2021/08/25 04:37:30;;;;;;;10.13;6.32;;;10.80;99.90;;;;;;5077196;28;20432;-62
2021/08/25 04:39:56;;;;;;;16.58;7.07;;;10.80;99.90;;;;;;5078511;28;20036;-61
2021/08/25 04:42:22;;;;;;;9.88;6.38;;;10.80;99.90;;;;;;5079862;28;20111;-62
2021/08/25 04:44:47;;;;;;;17.42;7.47;;;10.80;99.90;;;;;;5073012;28;20085;-62
2021/08/25 04:47:13;;;;;;;14.50;7.18;;;10.80;99.90;;;;;;5080683;28;20036;-62
2021/08/25 04:49:38;;;;;;;12.90;6.80;;;10.90;99.90;;;;;;5081511;28;20039;-61
2021/08/25 04:52:04;;;;;;;21.13;7.45;;;10.90;99.90;;;;;;5082464;28;20086;-61
2021/08/25 04:54:29;;;;;;;12.77;6.38;;;10.80;99.90;;;;;;5079737;28;20031;-60
2021/08/25 04:56:55;;;;;;;14.35;7.20;;;10.90;99.90;;;;;;5080712;28;20035;-63
2021/08/25 04:59:20;;;;;;;10.60;6.43;;;10.90;99.90;;;;;;5079909;28;20121;-63
2021/08/25 05:01:46;;;;;;;14.75;7.25;;;10.90;99.90;;;;;;5081057;28;20115;-63
2021/08/25 05:04:11;;;;;;;12.73;6.57;;;10.90;99.90;;;;;;5080406;28;20513;-62
2021/08/25 05:06:39;;;;;;;13.43;6.53;;;10.90;99.90;;;;;;5084299;28;20510;-63
2021/08/25 05:09:05;;;;;;;14.05;7.40;;;11.00;99.90;;;;;;5089417;28;20031;-63
2021/08/25 05:11:30;;;;;;;12.05;7.57;;;11.00;99.90;;;;;;5078896;28;20020;-63
2021/08/25 05:13:56;;;;;;;13.98;7.13;;;11.00;99.90;;;;;;5083021;28;20073;-63
2021/08/25 05:16:21;;;;;;;17.63;7.97;;;11.00;99.90;;;;;;5089540;28;20380;-63
2021/08/25 05:18:47;;;;;;;10.45;7.30;;;11.00;99.90;;;;;;5077138;28;20083;-63
2021/08/25 05:21:13;;;;;;;14.43;7.70;;;11.10;99.90;;;;;;5076897;28;20044;-63
2021/08/25 05:23:38;;;;;;;13.98;8.00;;;11.10;99.90;;;;;;5078598;28;20024;-63
2021/08/25 05:26:05;;;;;;;15.48;7.35;;;11.10;99.90;;;;;;5084763;28;20058;-63
2021/08/25 05:28:31;;;;;;;17.00;7.55;;;11.10;99.90;;;;;;5080773;28;20039;-63
2021/08/25 05:30:57;;;;;;;11.65;6.78;;;11.20;99.90;;;;;;5083292;28;20028;-63
2021/08/25 05:33:23;;;;;;;19.35;7.57;;;11.20;99.90;;;;;;5083863;28;20031;-63
2021/08/25 05:35:48;;;;;;;16.38;8.23;;;11.20;99.90;;;;;;5085454;28;20060;-62
2021/08/25 05:38:14;;;;;;;17.83;7.88;;;11.30;99.90;;;;;;5085069;28;20031;-63
2021/08/25 05:40:40;;;;;;;10.40;7.55;;;11.30;99.90;;;;;;5081051;28;20040;-63
2021/08/25 05:43:06;;;;;;;14.80;7.85;;;11.30;99.90;;;;;;5083755;28;20024;-62
2021/08/25 05:45:31;;;;;;;47.72;11.98;;;11.40;99.90;;;;;;5085194;28;20036;-62
2021/08/25 05:47:57;;;;;;;186.30;30.15;;;11.40;99.90;;;;;;5084096;28;20032;-63
2021/08/25 05:50:24;;;;;;;115.20;23.33;;;11.50;99.90;;;;;;5082551;28;20032;-63
2021/08/25 05:52:50;;;;;;;129.52;29.08;;;11.60;99.90;;;;;;5084116;28;20035;-61
2021/08/25 05:55:15;;;;;;;120.88;27.25;;;11.60;99.90;;;;;;5082923;28;20434;-63
2021/08/25 05:57:47;;;;;;;101.78;24.63;;;11.70;99.90;;;;;;5084930;28;20116;-63
2021/08/25 06:00:14;;;;;;;70.18;18.48;;;11.70;99.90;;;;;;5084024;28;20509;-63
2021/08/25 06:02:41;;;;;;;78.72;18.63;;;11.90;99.90;;;;;;5083358;28;20054;-63
2021/08/25 06:05:07;;;;;;;36.45;12.38;;;12.00;99.90;;;;;;5083047;28;20027;-63
2021/08/25 06:07:32;;;;;;;26.05;9.93;;;12.00;99.90;;;;;;5082334;28;20552;-63
2021/08/25 06:09:59;;;;;;;18.73;8.38;;;12.10;99.90;;;;;;5082528;28;20058;-62
2021/08/25 06:12:24;;;;;;;13.32;8.48;;;12.20;99.90;;;;;;5080601;28;20016;-63
2021/08/25 06:14:50;;;;;;;21.38;9.68;;;12.30;99.90;;;;;;5082681;28;20028;-62
2021/08/25 06:17:15;;;;;;;14.77;8.82;;;12.30;99.90;;;;;;5081175;28;20034;-63
2021/08/25 06:19:42;;;;;;;17.13;8.32;;;12.40;99.90;;;;;;5081490;28;20074;-63
2021/08/25 06:22:07;;;;;;;14.48;8.77;;;12.50;99.90;;;;;;5083271;28;20020;-63
2021/08/25 06:24:33;;;;;;;12.25;8.52;;;12.50;99.90;;;;;;5084357;28;20031;-61
2021/08/25 06:26:58;;;;;;;23.23;8.23;;;12.60;99.90;;;;;;5082565;28;20040;-63
2021/08/25 06:29:24;;;;;;;15.25;8.65;;;12.70;99.90;;;;;;5082247;28;20434;-63
2021/08/25 06:31:49;;;;;;;17.58;7.90;;;12.70;99.90;;;;;;5081826;28;20056;-63
2021/08/25 06:34:15;;;;;;;18.98;8.65;;;12.80;99.90;;;;;;5083977;28;20024;-63
2021/08/25 06:36:40;;;;;;;11.10;8.13;;;12.90;99.90;;;;;;5083126;28;20016;-61
2021/08/25 06:39:07;;;;;;;13.98;8.75;;;13.00;99.90;;;;;;5083518;28;20584;-62
2021/08/25 06:41:32;;;;;;;17.17;8.75;;;13.10;99.90;;;;;;5084307;28;20441;-61
2021/08/25 06:43:58;;;;;;;14.00;7.47;;;13.10;99.90;;;;;;5081809;28;20111;-62
2021/08/25 06:46:23;;;;;;;13.75;8.07;;;13.20;99.90;;;;;;5082295;28;20510;-62
2021/08/25 06:48:49;;;;;;;14.77;6.82;;;13.30;99.90;;;;;;5083918;28;20032;-61
2021/08/25 06:51:14;;;;;;;15.40;8.27;;;13.40;99.90;;;;;;5083634;28;20085;-62
2021/08/25 06:53:40;;;;;;;13.27;7.13;;;13.40;99.90;;;;;;5086308;28;20473;-62
2021/08/25 06:56:05;;;;;;;17.48;6.85;;;13.50;99.90;;;;;;5090845;28;20484;-62
2021/08/25 06:58:31;;;;;;;13.13;6.85;;;13.60;99.90;;;;;;5089448;28;20028;-62
2021/08/25 07:00:57;;;;;;;10.20;6.45;;;13.70;99.90;;;;;;5083364;28;20025;-62
2021/08/25 07:03:23;;;;;;;14.95;6.47;;;13.70;99.90;;;;;;5085554;28;20096;-61
2021/08/25 07:05:48;;;;;;;12.40;6.38;;;13.80;99.90;;;;;;5089869;28;20028;-62
2021/08/25 07:08:14;;;;;;;9.90;5.68;;;13.80;99.90;;;;;;5088852;28;20137;-62
2021/08/25 07:10:40;;;;;;;12.43;5.20;;;13.90;99.90;;;;;;5090638;28;20039;-62
2021/08/25 07:13:05;;;;;;;11.23;5.50;;;14.00;99.90;;;;;;5087072;28;20039;-61
2021/08/25 07:15:31;;;;;;;16.08;5.80;;;14.10;99.90;;;;;;5086239;28;20043;-62
2021/08/25 07:17:57;;;;;;;14.52;6.20;;;14.10;99.90;;;;;;5087593;28;20392;-62
2021/08/25 07:20:22;;;;;;;11.70;5.32;;;14.20;99.90;;;;;;5088094;28;20027;-62
2021/08/25 07:22:48;;;;;;;18.10;5.18;;;14.30;99.90;;;;;;5081539;28;20575;-61
2021/08/25 07:25:13;;;;;;;9.57;5.55;;;14.30;99.90;;;;;;5089781;28;20016;-62
2021/08/25 07:27:40;;;;;;;24.70;5.75;;;14.40;99.90;;;;;;5090030;28;20103;-62
2021/08/25 07:30:08;;;;;;;10.32;4.93;;;14.50;99.90;;;;;;5090459;28;20790;-62
2021/08/25 07:32:34;;;;;;;11.48;4.65;;;14.60;99.90;;;;;;5089228;28;20026;-62
2021/08/25 07:35:00;;;;;;;7.22;4.20;;;14.60;99.90;;;;;;5090449;28;20121;-62
2021/08/25 07:37:25;;;;;;;13.40;5.60;;;14.70;99.90;;;;;;5091162;28;20052;-62
2021/08/25 07:39:51;;;;;;;11.35;4.43;;;14.70;99.90;;;;;;5090896;28;20075;-62
2021/08/25 07:42:16;;;;;;;12.32;5.03;;;14.80;99.90;;;;;;5091245;28;20038;-62
2021/08/25 07:44:42;;;;;;;11.63;4.53;;;14.80;99.90;;;;;;5090415;28;20024;-62
2021/08/25 07:47:08;;;;;;;9.00;4.63;;;14.90;99.90;;;;;;5087296;28;20413;-62
2021/08/25 07:49:33;;;;;;;8.52;4.55;;;15.00;99.90;;;;;;5089859;28;20039;-62
2021/08/25 07:51:59;;;;;;;11.35;4.07;;;15.10;99.90;;;;;;5085720;28;20834;-62
2021/08/25 07:54:25;;;;;;;10.57;4.30;;;15.10;99.90;;;;;;5090129;28;20028;-62
2021/08/25 07:56:50;;;;;;;10.50;4.68;;;15.20;99.90;;;;;;5088114;28;20036;-62
2021/08/25 07:59:16;;;;;;;10.95;4.70;;;15.30;99.90;;;;;;5083503;28;20427;-62
2021/08/25 08:01:41;;;;;;;9.02;4.88;;;15.40;99.90;;;;;;5086350;28;20039;-62
2021/08/25 08:04:07;;;;;;;9.15;3.78;;;15.50;99.90;;;;;;5088506;28;20093;-62
2021/08/25 08:06:32;;;;;;;11.60;4.25;;;15.60;99.90;;;;;;5088761;28;20104;-62
2021/08/25 08:08:58;;;;;;;10.82;4.03;;;15.70;99.90;;;;;;5090242;28;20024;-62
2021/08/25 08:11:23;;;;;;;7.53;3.53;;;15.80;99.90;;;;;;5089561;28;20020;-62
2021/08/25 08:13:49;;;;;;;11.68;4.55;;;15.90;99.90;;;;;;5090334;28;20043;-62
2021/08/25 08:16:20;;;;;;;13.13;4.35;;;16.00;99.90;;;;;;5082126;28;20031;-62
2021/08/25 08:19:02;;;;;;;8.93;4.45;;;16.00;99.90;;;;;;5072146;28;20113;-62
2021/08/25 08:21:28;;;;;;;10.50;4.72;;;16.10;99.90;;;;;;5083439;28;20024;-62
2021/08/25 08:23:55;;;;;;;11.88;5.57;;;16.20;99.90;;;;;;5088491;28;20016;-62
2021/08/25 08:26:20;;;;;;;11.43;4.05;;;16.30;99.90;;;;;;5084407;28;20089;-62
2021/08/25 08:28:46;;;;;;;9.35;3.97;;;16.40;99.90;;;;;;5085873;28;20059;-62
2021/08/25 08:31:12;;;;;;;10.68;3.92;;;16.50;99.90;;;;;;5086422;28;20050;-62
2021/08/25 08:33:39;;;;;;;9.70;4.18;;;16.60;99.90;;;;;;5070885;28;20020;-62
2021/08/25 08:36:05;;;;;;;8.38;3.72;;;16.70;99.90;;;;;;5085778;28;20129;-61
2021/08/25 08:38:30;;;;;;;9.60;3.95;;;16.80;99.90;;;;;;5089770;28;20129;-62
2021/08/25 08:40:56;;;;;;;9.55;3.75;;;16.80;99.90;;;;;;5089317;28;20026;-62
2021/08/25 08:43:22;;;;;;;8.95;4.43;;;16.90;99.90;;;;;;5086900;28;20036;-62
2021/08/25 08:45:49;;;;;;;8.23;4.40;;;17.00;99.90;;;;;;5089018;28;20081;-62
2021/08/25 08:48:15;;;;;;;13.18;4.03;;;17.10;99.90;;;;;;5088445;28;20548;-62
2021/08/25 08:50:46;;;;;;;11.20;3.30;;;17.20;99.90;;;;;;5081915;22;20041;-61
2021/08/25 08:53:12;;;;;;;13.13;4.15;;;17.20;99.90;;;;;;5043296;28;20083;-61
2021/08/25 08:55:38;;;;;;;9.60;3.80;;;17.40;99.90;;;;;;5044504;28;20087;-63
2021/08/25 08:58:05;;;;;;;14.23;3.97;;;17.40;99.90;;;;;;5047929;28;20079;-63
2021/08/25 09:00:31;;;;;;;10.02;4.10;;;17.50;99.90;;;;;;5049637;28;20441;-63
2021/08/25 09:02:57;;;;;;;10.57;4.40;;;17.70;99.90;;;;;;5045069;28;20055;-61
2021/08/25 09:05:28;;;;;;;7.53;3.55;;;17.80;99.90;;;;;;5044459;28;20052;-63
2021/08/25 09:08:05;;;;;;;12.13;4.50;;;17.90;99.90;;;;;;5046472;28;20021;-63
2021/08/25 09:10:36;;;;;;;10.07;3.78;;;18.10;99.90;;;;;;5046116;28;20417;-62
2021/08/25 09:13:04;;;;;;;7.95;3.65;;;18.20;99.90;;;;;;5045097;28;20314;-61
2021/08/25 09:15:31;;;;;;;10.20;3.78;;;18.30;99.90;;;;;;5043031;28;20496;-62
2021/08/25 09:18:09;;;;;;;8.55;3.65;;;18.40;99.90;;;;;;5043374;28;20492;-63
2021/08/25 09:20:41;;;;;;;13.15;4.55;;;18.50;99.90;;;;;;5046408;28;20910;-62
2021/08/25 09:23:13;;;;;;;7.32;3.75;;;18.40;99.90;;;;;;5040655;28;20029;-63
2021/08/25 09:25:39;;;;;;;10.63;3.90;;;18.50;99.90;;;;;;5043628;28;20033;-63
2021/08/25 09:28:06;;;;;;;11.18;4.22;;;18.70;99.90;;;;;;5043606;28;20071;-63
2021/08/25 09:31:03;;;;;;;16.00;4.55;;;18.90;99.90;;;;;;5046336;28;20024;-63
2021/08/25 09:33:37;;;;;;;8.35;4.20;;;19.10;99.90;;;;;;5044452;28;20196;-62
2021/08/25 09:36:05;;;;;;;10.85;4.78;;;19.30;99.90;;;;;;5048863;28;20029;-63
2021/08/25 09:38:32;;;;;;;6.88;3.15;;;19.40;99.90;;;;;;5045859;28;20168;-63
2021/08/25 09:41:09;;;;;;;6.00;3.38;;;19.60;99.90;;;;;;5046233;28;20021;-63
2021/08/25 09:43:43;;;;;;;11.52;4.90;;;19.70;99.90;;;;;;5046854;28;20040;-63
2021/08/25 09:46:15;;;;;;;14.32;5.75;;;19.80;99.90;;;;;;5041011;28;20469;-62
2021/08/25 09:48:47;;;;;;;15.77;4.32;;;19.90;99.90;;;;;;5043536;28;20037;-64
2021/08/25 09:51:14;;;;;;;10.30;4.80;;;20.00;99.90;;;;;;5042241;28;20060;-62
2021/08/25 09:53:41;;;;;;;11.02;4.65;;;20.20;99.90;;;;;;5041483;28;20025;-62
2021/08/25 09:56:25;;;;;;;9.70;4.63;;;20.30;99.90;;;;;;5045808;28;20053;-63
2021/08/25 09:58:51;;;;;;;8.95;5.15;;;20.50;99.90;;;;;;5028227;28;20029;-63
2021/08/25 10:01:17;;;;;;;9.50;4.65;;;20.60;99.90;;;;;;5042749;28;20030;-62
2021/08/25 10:03:43;;;;;;;12.40;4.85;;;20.60;99.90;;;;;;5046483;28;20052;-63
2021/08/25 10:06:09;;;;;;;13.73;5.25;;;20.80;99.90;;;;;;5041001;28;20067;-62
2021/08/25 10:08:35;;;;;;;11.52;5.07;;;20.90;99.90;;;;;;5046107;28;20053;-63
2021/08/25 10:11:02;;;;;;;8.48;4.03;;;21.10;99.90;;;;;;5041945;28;20211;-61
2021/08/25 10:13:28;;;;;;;10.35;4.75;;;21.30;99.90;;;;;;5041274;28;20068;-63
2021/08/25 10:15:54;;;;;;;11.60;5.22;;;21.50;99.90;;;;;;5039237;28;20039;-63
2021/08/25 10:18:27;;;;;;;10.90;4.97;;;21.70;99.90;;;;;;5044435;28;20124;-63
2021/08/25 10:20:55;;;;;;;11.25;4.88;;;21.90;99.90;;;;;;5046854;28;20025;-63
2021/08/25 10:23:56;;;;;;;12.63;5.13;;;21.80;99.90;;;;;;5041847;28;20087;-62
2021/08/25 10:26:22;;;;;;;10.95;4.78;;;22.00;99.90;;;;;;5038428;28;20026;-62
2021/08/25 10:28:59;;;;;;;10.73;4.57;;;22.30;99.90;;;;;;5040609;28;20044;-63
2021/08/25 10:31:26;;;;;;;8.45;4.45;;;22.40;99.90;;;;;;5037394;28;20017;-63
2021/08/25 10:34:10;;;;;;;9.90;4.50;;;22.40;99.90;;;;;;5039850;28;20563;-61
2021/08/25 10:36:36;;;;;;;10.13;4.15;;;22.20;99.90;;;;;;5044705;28;20036;-63
2021/08/25 10:39:01;;;;;;;9.02;4.10;;;22.10;99.90;;;;;;5042301;28;20029;-62
2021/08/25 10:41:27;;;;;;;6.97;4.07;;;22.30;99.90;;;;;;5037088;28;20034;-61
2021/08/25 10:43:55;;;;;;;12.43;4.63;;;22.40;99.90;;;;;;5046103;28;20029;-62
2021/08/25 10:46:21;;;;;;;12.25;4.80;;;22.50;99.90;;;;;;5045764;28;20029;-62
2021/08/25 10:48:55;;;;;;;8.55;4.10;;;22.50;99.90;;;;;;5048259;28;20544;-63
2021/08/25 10:51:23;;;;;;;10.07;4.43;;;22.70;99.90;;;;;;5048895;28;20171;-62
2021/08/25 10:53:49;;;;;;;8.93;4.05;;;22.80;99.90;;;;;;5049229;28;20033;-62
2021/08/25 10:56:20;;;;;;;11.43;5.63;;;22.90;99.90;;;;;;5049381;28;20110;-62
2021/08/25 10:58:55;;;;;;;8.43;4.40;;;22.90;99.90;;;;;;5051711;28;20055;-62
2021/08/25 11:01:29;;;;;;;10.18;4.60;;;22.80;99.90;;;;;;5051665;28;20032;-63
2021/08/25 11:03:57;;;;;;;11.45;4.88;;;23.00;99.90;;;;;;5047301;28;20051;-64
2021/08/25 11:06:35;;;;;;;14.63;4.95;;;23.00;99.90;;;;;;5049120;28;20378;-63
2021/08/25 11:09:10;;;;;;;17.67;4.30;;;23.20;99.90;;;;;;5049651;28;20032;-61
2021/08/25 11:11:36;;;;;;;9.88;4.50;;;23.30;99.90;;;;;;5048632;28;20043;-63
2021/08/25 11:14:01;;;;;;;13.65;5.25;;;23.30;99.90;;;;;;5046237;28;20639;-63
2021/08/25 11:16:27;;;;;;;13.80;5.80;;;23.10;99.90;;;;;;5045627;28;20568;-63
2021/08/25 11:18:52;;;;;;;8.43;4.57;;;22.90;99.90;;;;;;5039306;28;20511;-63
2021/08/25 11:21:18;;;;;;;12.05;5.45;;;23.00;99.90;;;;;;5041509;28;20017;-62
2021/08/25 11:23:57;;;;;;;15.00;5.63;;;23.00;99.90;;;;;;5041860;28;20033;-62
2021/08/25 11:26:23;;;;;;;12.48;4.80;;;22.90;99.90;;;;;;5046039;28;20382;-62
2021/08/25 11:28:49;;;;;;;9.77;4.72;;;23.00;99.90;;;;;;5050459;28;20669;-62
2021/08/25 11:31:25;;;;;;;14.68;5.00;;;22.90;99.90;;;;;;5039547;28;20037;-62
2021/08/25 11:33:52;;;;;;;10.48;4.30;;;22.80;99.90;;;;;;5049421;28;20067;-60
2021/08/25 11:36:18;;;;;;;8.52;4.95;;;23.10;99.90;;;;;;5047620;28;20024;-62
2021/08/25 11:38:43;;;;;;;10.60;4.90;;;23.60;99.90;;;;;;5048796;28;20408;-63
2021/08/25 11:41:09;;;;;;;9.93;5.25;;;23.80;99.90;;;;;;5046369;28;20099;-62
2021/08/25 11:43:46;;;;;;;10.75;5.18;;;24.00;99.90;;;;;;5045751;28;20027;-62
2021/08/25 11:46:23;;;;;;;11.95;5.72;;;23.80;99.90;;;;;;5045655;28;20025;-62
2021/08/25 11:48:50;;;;;;;10.82;5.03;;;23.90;99.90;;;;;;5047550;28;20052;-62
2021/08/25 11:51:16;;;;;;;8.52;4.60;;;24.10;99.60;;;;;;5039621;28;20029;-62
2021/08/25 11:53:42;;;;;;;10.15;5.35;;;24.30;99.90;;;;;;5037873;28;20062;-63
2021/08/25 11:56:09;;;;;;;9.40;4.93;;;24.20;99.90;;;;;;5045372;28;20067;-63
2021/08/25 11:58:37;;;;;;;9.10;4.57;;;24.30;99.60;;;;;;5041605;28;20041;-62
2021/08/25 12:01:04;;;;;;;9.63;4.63;;;24.20;98.40;;;;;;5042815;28;20021;-62
2021/08/25 12:03:43;;;;;;;11.55;5.13;;;24.00;98.30;;;;;;5039086;28;20024;-62
2021/08/25 12:06:13;;;;;;;9.50;5.07;;;24.00;99.00;;;;;;5045818;28;20029;-63
2021/08/25 12:08:43;;;;;;;13.10;5.88;;;24.30;97.50;;;;;;5044211;28;20397;-62
2021/08/25 12:11:10;;;;;;;12.85;5.35;;;24.20;96.70;;;;;;5049256;28;20090;-62
2021/08/25 12:13:38;;;;;;;9.20;4.95;;;24.20;96.70;;;;;;5047056;28;20561;-66
2021/08/25 12:16:11;;;;;;;10.35;5.72;;;24.00;96.90;;;;;;5047577;28;20041;-61
2021/08/25 12:18:51;;;;;;;11.48;5.80;;;23.90;97.10;;;;;;5044584;28;20503;-63
2021/08/25 12:21:18;;;;;;;9.63;5.40;;;23.90;96.90;;;;;;5040624;28;20477;-63
2021/08/25 12:23:58;;;;;;;13.30;5.80;;;24.30;97.40;;;;;;5047263;28;20111;-63
2021/08/25 12:26:25;;;;;;;10.02;5.22;;;24.30;96.30;;;;;;5048999;28;20438;-62
2021/08/25 12:28:50;;;;;;;12.38;5.68;;;24.40;97.80;;;;;;5041333;28;20416;-62
2021/08/25 12:31:19;;;;;;;9.15;5.10;;;24.60;97.90;;;;;;5045189;28;20053;-62
2021/08/25 12:33:51;;;;;;;11.88;5.45;;;24.90;99.20;;;;;;5046125;28;20117;-63
2021/08/25 12:36:30;;;;;;;18.90;6.25;;;25.10;96.60;;;;;;5049060;28;20188;-62
2021/08/25 12:39:06;;;;;;;13.48;5.22;;;24.90;95.00;;;;;;5046147;28;20033;-62
2021/08/25 12:41:33;;;;;;;11.25;5.68;;;24.80;96.60;;;;;;5049983;28;20104;-63